Vandalia, Indiana
Current Conditions -  °F | °C
As of 1:53 AM on Friday 28 Nov 2014 (Local Time) from KBMG Reporting Station
Haze Haze  
Wind Chill:   Ceiling: Unl
Heat Index: 16°   Visibility: 6mi
Dew Point: 14°   Wind: 5mph
Humidity: 92%   Direction: 230°SW
Pressure: 30.4"   Gusts: NA
Location:  39.3008°N, 86.8112°W
Report Text: KBMG 280653Z AUTO 23004KT 6SM BR CLR M09/M10 A3040 RMK AO2 SLP305 T10891100
Loading
Personal Weather Stations






























Interactive Weather Map New forecast layout! Learn more

10-Day Weather Forecast

Advertisements
Track Severe Weather on mobile